Time;durP1;ratioP1;P1;durP2;ratioP2;P2;SDS_P1;SDS_P2;PMS_P1;PMS_P2;Temp;Humidity;BMP_temperature;BMP_pressure;BME280_temperature;BME280_humidity;BME280_pressure;Samples;Min_cycle;Max_cycle;Signal;HPM_P1;HPM_P2
2024/02/24 00:01:24;;;;;;;3.60;2.87;;;21.90;55.50;;;;;;5053564;28;20946;-70
2024/02/24 00:03:50;;;;;;;5.67;3.30;;;21.90;55.40;;;;;;5053777;28;20199;-70
2024/02/24 00:06:16;;;;;;;3.93;2.97;;;21.90;55.50;;;;;;5053736;28;20179;-73
2024/02/24 00:08:42;;;;;;;4.70;3.00;;;21.90;55.40;;;;;;5052320;28;20669;-70
2024/02/24 00:11:08;;;;;;;3.23;2.40;;;21.90;55.40;;;;;;5052037;28;20179;-70
2024/02/24 00:13:33;;;;;;;2.87;2.50;;;21.90;55.40;;;;;;5051982;28;20526;-71
2024/02/24 00:15:59;;;;;;;3.53;2.50;;;21.90;55.40;;;;;;5052304;28;20409;-69
2024/02/24 00:18:25;;;;;;;3.70;2.93;;;21.90;55.40;;;;;;5051793;28;20190;-71
2024/02/24 00:20:51;;;;;;;4.00;2.80;;;21.90;55.50;;;;;;5051938;28;20194;-71
2024/02/24 00:23:16;;;;;;;5.03;3.17;;;21.90;55.50;;;;;;5051696;28;20226;-71
2024/02/24 00:25:42;;;;;;;3.97;3.10;;;21.90;55.50;;;;;;5051942;28;20209;-67
2024/02/24 00:28:09;;;;;;;3.80;2.77;;;21.90;55.50;;;;;;5051990;28;20179;-70
2024/02/24 00:30:35;;;;;;;4.77;3.27;;;21.90;55.50;;;;;;5052125;28;20201;-70
2024/02/24 00:33:00;;;;;;;3.43;2.87;;;21.90;55.50;;;;;;5052090;28;20972;-70
2024/02/24 00:35:28;;;;;;;3.60;2.57;;;21.90;55.50;;;;;;5052020;28;20175;-71
2024/02/24 00:37:55;;;;;;;3.30;2.80;;;21.90;55.50;;;;;;5052334;28;20201;-71
2024/02/24 00:40:20;;;;;;;4.60;2.83;;;21.90;55.40;;;;;;5052477;28;20421;-70
2024/02/24 00:42:46;;;;;;;5.87;4.00;;;21.90;55.40;;;;;;5052059;28;20516;-70
2024/02/24 00:45:12;;;;;;;4.03;3.00;;;21.90;55.50;;;;;;5051930;28;20225;-71
2024/02/24 00:47:37;;;;;;;4.90;3.43;;;21.90;55.50;;;;;;5050449;28;20217;-71
2024/02/24 00:50:03;;;;;;;3.47;2.83;;;21.90;55.50;;;;;;5052216;28;20193;-71
2024/02/24 00:52:29;;;;;;;4.47;2.93;;;21.90;55.50;;;;;;5052354;28;20229;-71
2024/02/24 00:54:54;;;;;;;3.97;2.70;;;21.90;55.50;;;;;;5052066;28;20401;-70
2024/02/24 00:57:20;;;;;;;4.57;2.73;;;21.90;55.50;;;;;;5051797;28;20167;-71
2024/02/24 00:59:45;;;;;;;3.70;2.70;;;21.90;55.50;;;;;;5051685;28;20178;-71
2024/02/24 01:02:11;;;;;;;5.70;2.83;;;21.90;55.50;;;;;;5051932;28;20846;-69
2024/02/24 01:04:37;;;;;;;3.90;2.40;;;21.90;55.50;;;;;;5051692;28;20166;-70
2024/02/24 01:07:02;;;;;;;4.70;3.23;;;21.90;55.50;;;;;;5051940;28;20634;-71
2024/02/24 01:09:28;;;;;;;5.10;2.67;;;21.90;55.50;;;;;;5050350;28;20692;-70
2024/02/24 01:11:53;;;;;;;4.43;2.77;;;21.90;55.40;;;;;;5051499;28;20167;-71
2024/02/24 01:14:19;;;;;;;4.70;3.17;;;21.90;55.50;;;;;;5050263;28;20175;-71
2024/02/24 01:16:45;;;;;;;4.13;3.43;;;21.90;55.50;;;;;;5050269;28;20650;-70
2024/02/24 01:19:11;;;;;;;2.77;2.47;;;21.90;55.50;;;;;;5051469;28;20186;-69
2024/02/24 01:21:42;;;;;;;4.83;3.40;;;21.80;55.40;;;;;;5051601;28;20170;-69
2024/02/24 01:24:09;;;;;;;5.27;3.33;;;21.90;55.50;;;;;;5051871;28;20194;-71
2024/02/24 01:26:34;;;;;;;7.43;3.30;;;21.90;55.50;;;;;;5051623;28;20409;-70
2024/02/24 01:29:00;;;;;;;4.00;2.63;;;21.90;55.50;;;;;;5050398;28;20420;-71
2024/02/24 01:31:25;;;;;;;4.17;2.80;;;21.80;55.40;;;;;;5050399;28;20183;-70
2024/02/24 01:33:51;;;;;;;6.47;3.33;;;21.80;55.50;;;;;;5051402;28;20704;-70
2024/02/24 01:36:16;;;;;;;6.00;3.03;;;21.80;55.50;;;;;;5051705;28;20217;-69
2024/02/24 01:38:42;;;;;;;3.70;2.80;;;21.80;55.50;;;;;;5051633;28;20172;-70
2024/02/24 01:41:08;;;;;;;4.03;2.80;;;21.80;55.50;;;;;;5051680;28;20646;-70
2024/02/24 01:43:37;;;;;;;4.90;3.20;;;21.80;55.50;;;;;;5050371;28;20297;-70
2024/02/24 01:46:03;;;;;;;3.90;2.50;;;21.80;55.50;;;;;;5052588;28;20665;-70
2024/02/24 01:48:33;;;;;;;3.10;2.80;;;21.80;55.50;;;;;;5055538;28;20416;-70
2024/02/24 01:50:59;;;;;;;4.23;2.50;;;21.80;55.50;;;;;;5053818;28;20444;-71
2024/02/24 01:53:27;;;;;;;6.27;3.33;;;21.80;55.50;;;;;;5054902;28;20457;-71
2024/02/24 01:55:53;;;;;;;5.37;3.00;;;21.80;55.50;;;;;;5055310;28;20441;-70
2024/02/24 01:58:20;;;;;;;4.30;2.90;;;21.80;55.50;;;;;;5053869;28;20405;-70
2024/02/24 02:00:46;;;;;;;4.67;2.93;;;21.80;55.50;;;;;;5054893;28;20445;-71
2024/02/24 02:03:11;;;;;;;4.57;2.60;;;21.80;55.50;;;;;;5054770;28;20455;-71
2024/02/24 02:05:37;;;;;;;3.90;2.80;;;21.80;55.50;;;;;;5053780;28;20413;-70
2024/02/24 02:08:03;;;;;;;4.20;2.73;;;21.80;55.50;;;;;;5055148;28;20202;-71
2024/02/24 02:10:52;;;;;;;6.33;3.10;;;21.80;55.50;;;;;;5036454;28;20186;-68
2024/02/24 02:13:19;;;;;;;2.80;2.40;;;21.80;55.50;;;;;;5054694;28;20509;-71
2024/02/24 02:15:46;;;;;;;4.60;2.97;;;21.80;55.50;;;;;;5054600;28;21055;-70
2024/02/24 02:18:12;;;;;;;5.20;2.60;;;21.80;55.50;;;;;;5054646;28;20824;-70
2024/02/24 02:20:37;;;;;;;5.20;2.80;;;21.80;55.50;;;;;;5054606;28;20427;-71
2024/02/24 02:23:04;;;;;;;4.07;3.07;;;21.80;55.50;;;;;;5055019;28;20199;-71
2024/02/24 02:25:30;;;;;;;3.83;3.43;;;21.80;55.50;;;;;;5054521;28;20179;-71
2024/02/24 02:27:55;;;;;;;3.20;2.70;;;21.80;55.50;;;;;;5054672;28;20425;-70
2024/02/24 02:30:21;;;;;;;2.97;2.67;;;21.80;55.50;;;;;;5054133;28;20182;-70
2024/02/24 02:32:46;;;;;;;5.77;2.87;;;21.80;55.50;;;;;;5054091;28;20198;-70
2024/02/24 02:35:12;;;;;;;6.00;3.30;;;21.80;55.50;;;;;;5054338;28;20635;-70
2024/02/24 02:37:38;;;;;;;3.30;2.73;;;21.80;55.50;;;;;;5054594;28;20185;-70
2024/02/24 02:40:03;;;;;;;3.97;2.50;;;21.80;55.50;;;;;;5054562;28;20179;-70
2024/02/24 02:42:29;;;;;;;3.93;2.73;;;21.80;55.50;;;;;;5054406;28;20199;-69
2024/02/24 02:44:55;;;;;;;4.20;2.70;;;21.80;55.50;;;;;;5052748;28;20484;-69
2024/02/24 02:47:20;;;;;;;3.30;2.40;;;21.80;55.50;;;;;;5054466;28;20191;-70
2024/02/24 02:49:46;;;;;;;2.97;2.07;;;21.80;55.50;;;;;;5054558;28;20199;-70
2024/02/24 02:52:12;;;;;;;3.50;2.70;;;21.80;55.50;;;;;;5053983;28;20198;-70
2024/02/24 02:54:37;;;;;;;3.70;2.50;;;21.80;55.50;;;;;;5054190;28;20171;-69
2024/02/24 02:57:03;;;;;;;3.33;2.20;;;21.80;55.50;;;;;;5053791;28;20171;-70
2024/02/24 02:59:29;;;;;;;4.50;2.50;;;21.80;55.50;;;;;;5053752;28;20182;-70
2024/02/24 03:01:57;;;;;;;5.40;2.97;;;21.80;55.50;;;;;;5053807;28;20778;-70
2024/02/24 03:04:22;;;;;;;3.20;2.37;;;21.80;55.50;;;;;;5053849;28;20159;-70
2024/02/24 03:06:48;;;;;;;3.30;2.90;;;21.80;55.50;;;;;;5054065;28;20420;-69
2024/02/24 03:09:14;;;;;;;4.23;2.73;;;21.80;55.50;;;;;;5052372;28;20191;-70
2024/02/24 03:11:39;;;;;;;4.10;2.50;;;21.80;55.50;;;;;;5053776;28;20226;-70
2024/02/24 03:14:05;;;;;;;2.80;2.30;;;21.80;55.50;;;;;;5052375;28;20215;-70
2024/02/24 03:16:30;;;;;;;4.27;2.80;;;21.80;55.50;;;;;;5053765;28;20167;-69
2024/02/24 03:18:56;;;;;;;4.67;2.50;;;21.80;55.50;;;;;;5051778;28;20190;-70
2024/02/24 03:21:25;;;;;;;3.70;2.87;;;21.80;55.50;;;;;;5054083;28;20233;-69
2024/02/24 03:23:51;;;;;;;4.10;2.30;;;21.80;55.50;;;;;;5053832;28;20202;-70
2024/02/24 03:26:17;;;;;;;4.53;3.03;;;21.80;55.50;;;;;;5053486;28;20512;-70
2024/02/24 03:28:42;;;;;;;4.63;2.20;;;21.80;55.60;;;;;;5053537;28;20908;-70
2024/02/24 03:31:08;;;;;;;3.60;2.17;;;21.80;55.60;;;;;;5053540;28;20253;-70
2024/02/24 03:33:33;;;;;;;3.13;2.00;;;21.80;55.50;;;;;;5053035;28;20232;-70
2024/02/24 03:35:59;;;;;;;3.23;2.17;;;21.80;55.60;;;;;;5051998;28;20175;-68
2024/02/24 03:38:24;;;;;;;2.83;2.23;;;21.70;55.50;;;;;;5053076;28;20179;-69
2024/02/24 03:40:50;;;;;;;3.63;2.33;;;21.80;55.50;;;;;;5053022;28;20167;-70
2024/02/24 03:43:16;;;;;;;4.17;2.10;;;21.80;55.50;;;;;;5052974;28;20218;-70
2024/02/24 03:45:42;;;;;;;2.40;1.97;;;21.80;55.60;;;;;;5053074;28;20859;-69
2024/02/24 03:48:07;;;;;;;4.33;2.20;;;21.70;55.50;;;;;;5051979;28;20175;-70
2024/02/24 03:50:33;;;;;;;2.83;2.43;;;21.70;55.50;;;;;;5053001;28;20183;-70
2024/02/24 03:53:00;;;;;;;2.97;2.43;;;21.70;55.50;;;;;;5053029;28;20229;-70
2024/02/24 03:55:25;;;;;;;2.20;1.90;;;21.80;55.60;;;;;;5053331;28;20174;-70
2024/02/24 03:57:51;;;;;;;3.87;2.20;;;21.70;55.50;;;;;;5052881;28;20410;-70
2024/02/24 04:00:17;;;;;;;3.67;2.23;;;21.70;55.50;;;;;;5053364;28;20175;-69
2024/02/24 04:02:43;;;;;;;3.80;2.70;;;21.70;55.60;;;;;;5053038;28;20748;-70
2024/02/24 04:05:08;;;;;;;3.80;1.93;;;21.70;55.50;;;;;;5052682;28;20175;-70
2024/02/24 04:07:34;;;;;;;3.53;1.80;;;21.70;55.50;;;;;;5052477;28;21209;-70
2024/02/24 04:10:00;;;;;;;4.40;2.10;;;21.70;55.50;;;;;;5052252;28;20175;-70
2024/02/24 04:12:25;;;;;;;6.83;2.70;;;21.70;55.50;;;;;;5052362;28;20222;-70
2024/02/24 04:14:51;;;;;;;4.53;2.47;;;21.70;55.60;;;;;;5052584;28;20190;-70
2024/02/24 04:17:17;;;;;;;2.53;1.83;;;21.70;55.50;;;;;;5052852;28;20182;-70
2024/02/24 04:19:42;;;;;;;5.63;2.20;;;21.70;55.50;;;;;;5052496;28;20784;-70
2024/02/24 04:22:08;;;;;;;3.93;2.60;;;21.70;55.50;;;;;;5052369;28;20685;-70
2024/02/24 04:24:33;;;;;;;3.80;2.53;;;21.70;55.60;;;;;;5052432;28;20197;-70
2024/02/24 04:26:59;;;;;;;2.67;2.10;;;21.70;55.60;;;;;;5052498;28;20186;-70
2024/02/24 04:29:25;;;;;;;3.20;2.47;;;21.70;55.60;;;;;;5052174;28;20186;-70
2024/02/24 04:31:51;;;;;;;2.83;1.90;;;21.70;55.60;;;;;;5052595;28;20544;-69
2024/02/24 04:34:16;;;;;;;3.80;2.10;;;21.70;55.60;;;;;;5052052;28;20198;-70
2024/02/24 04:36:42;;;;;;;3.77;2.00;;;21.70;55.60;;;;;;5052547;28;20421;-70
2024/02/24 04:39:09;;;;;;;3.13;2.40;;;21.70;55.60;;;;;;5050664;28;20650;-71
2024/02/24 04:41:35;;;;;;;3.20;1.90;;;21.70;55.60;;;;;;5052240;28;20171;-70
2024/02/24 04:44:00;;;;;;;3.10;2.00;;;21.70;56.20;;;;;;5052282;28;20444;-70
2024/02/24 04:46:26;;;;;;;2.77;2.10;;;21.70;55.60;;;;;;5052485;28;20422;-70
2024/02/24 04:48:51;;;;;;;3.47;2.20;;;21.70;55.60;;;;;;5052434;28;20230;-70
2024/02/24 04:51:17;;;;;;;3.00;2.00;;;21.70;55.60;;;;;;5052027;28;20182;-70
2024/02/24 04:53:43;;;;;;;3.57;2.40;;;21.70;55.60;;;;;;5051683;28;20682;-70
2024/02/24 04:56:14;;;;;;;3.00;2.07;;;21.70;55.60;;;;;;5050827;28;20175;-70
2024/02/24 04:58:40;;;;;;;2.90;1.90;;;21.70;55.70;;;;;;5050483;28;20182;-70
2024/02/24 05:01:05;;;;;;;4.43;2.07;;;21.70;55.70;;;;;;5051985;28;20417;-70
2024/02/24 05:03:31;;;;;;;2.20;1.80;;;21.70;55.70;;;;;;5052240;28;20616;-70
2024/02/24 05:05:56;;;;;;;3.70;2.70;;;21.60;55.60;;;;;;5051970;28;20217;-70
2024/02/24 05:08:22;;;;;;;2.70;1.83;;;21.60;55.60;;;;;;5051929;28;21018;-70
2024/02/24 05:10:48;;;;;;;2.50;1.70;;;21.60;55.60;;;;;;5051649;28;20260;-70
2024/02/24 05:13:13;;;;;;;3.40;2.00;;;21.60;55.60;;;;;;5050151;28;20249;-70
2024/02/24 05:15:39;;;;;;;2.60;2.27;;;21.70;55.70;;;;;;5051612;28;20575;-70
2024/02/24 05:18:04;;;;;;;1.90;1.73;;;21.60;55.60;;;;;;5051579;28;20537;-71
2024/02/24 05:20:30;;;;;;;2.27;1.77;;;21.60;55.60;;;;;;5052155;28;20302;-69
2024/02/24 05:22:56;;;;;;;3.20;2.17;;;21.60;55.60;;;;;;5056046;28;20708;-69
2024/02/24 05:25:22;;;;;;;2.73;1.80;;;21.60;55.60;;;;;;5055564;28;20406;-70
2024/02/24 05:27:47;;;;;;;2.83;1.70;;;21.60;55.60;;;;;;5055680;28;20183;-68
2024/02/24 05:30:13;;;;;;;2.70;2.00;;;21.60;55.60;;;;;;5055630;28;20174;-70
2024/02/24 05:32:39;;;;;;;2.30;2.00;;;21.60;55.60;;;;;;5055603;28;20244;-70
2024/02/24 05:35:05;;;;;;;2.60;1.90;;;21.60;55.60;;;;;;5055477;28;20261;-70
2024/02/24 05:37:30;;;;;;;3.53;2.47;;;21.60;55.60;;;;;;5055613;28;20175;-69
2024/02/24 05:39:58;;;;;;;2.97;1.90;;;21.60;55.60;;;;;;5055546;28;20441;-70
2024/02/24 05:42:25;;;;;;;2.33;2.10;;;21.60;55.60;;;;;;5055510;28;20281;-70
2024/02/24 05:44:51;;;;;;;2.30;2.03;;;21.60;55.60;;;;;;5055601;28;20409;-70
2024/02/24 05:47:16;;;;;;;2.30;1.70;;;21.60;55.60;;;;;;5055442;28;20409;-71
2024/02/24 05:49:42;;;;;;;2.33;1.80;;;21.60;55.60;;;;;;5055318;28;20183;-70
2024/02/24 05:52:08;;;;;;;1.93;1.70;;;21.60;55.60;;;;;;5055417;28;20274;-70
2024/02/24 05:54:34;;;;;;;2.80;1.93;;;21.60;55.60;;;;;;5055277;28;20195;-71
2024/02/24 05:57:02;;;;;;;3.37;2.00;;;21.60;55.60;;;;;;5055633;28;20595;-70
2024/02/24 05:59:29;;;;;;;2.67;1.70;;;21.60;55.60;;;;;;5055415;28;20587;-69
2024/02/24 06:01:55;;;;;;;2.60;1.90;;;21.60;55.60;;;;;;5055161;28;20401;-70
2024/02/24 06:04:20;;;;;;;2.77;1.83;;;21.60;55.60;;;;;;5055274;28;20669;-69
2024/02/24 06:06:48;;;;;;;3.27;2.17;;;21.60;55.60;;;;;;5055090;28;20175;-70
2024/02/24 06:09:14;;;;;;;4.07;2.00;;;21.60;55.60;;;;;;5055045;28;20190;-70
2024/02/24 06:11:41;;;;;;;3.20;1.67;;;21.60;55.60;;;;;;5054693;28;20406;-70
2024/02/24 06:14:06;;;;;;;3.27;1.90;;;21.60;55.60;;;;;;5054732;28;20449;-70
2024/02/24 06:16:32;;;;;;;2.77;2.03;;;21.60;55.70;;;;;;5054796;28;20437;-70
2024/02/24 06:18:58;;;;;;;2.30;1.40;;;21.60;55.60;;;;;;5055280;28;20183;-70
2024/02/24 06:21:25;;;;;;;3.47;1.90;;;21.60;55.70;;;;;;5054763;28;20984;-71
2024/02/24 06:23:51;;;;;;;2.47;2.17;;;21.60;55.70;;;;;;5054711;28;20508;-70
2024/02/24 06:26:17;;;;;;;1.93;1.73;;;21.60;55.70;;;;;;5053348;28;20504;-70
2024/02/24 06:28:43;;;;;;;2.90;1.70;;;21.70;55.70;;;;;;5054930;28;20175;-70
2024/02/24 06:31:08;;;;;;;2.83;1.70;;;21.60;55.70;;;;;;5054426;28;20175;-70
2024/02/24 06:33:34;;;;;;;2.47;2.27;;;21.70;55.70;;;;;;5052808;28;20465;-71
2024/02/24 06:36:02;;;;;;;2.40;1.90;;;21.70;55.70;;;;;;5054839;28;20530;-70
2024/02/24 06:38:28;;;;;;;2.13;1.70;;;21.70;55.70;;;;;;5054482;28;20575;-69
2024/02/24 06:40:53;;;;;;;2.20;1.60;;;21.70;55.70;;;;;;5054491;28;20488;-70
2024/02/24 06:43:19;;;;;;;2.70;1.63;;;21.70;55.70;;;;;;5054478;28;20191;-70
2024/02/24 06:45:45;;;;;;;3.50;1.90;;;21.70;55.70;;;;;;5054863;28;20175;-69
2024/02/24 06:48:10;;;;;;;2.87;1.90;;;21.70;55.70;;;;;;5054012;28;20167;-70
2024/02/24 06:50:36;;;;;;;3.30;1.83;;;21.70;55.70;;;;;;5053869;28;20607;-70
2024/02/24 06:53:02;;;;;;;2.20;1.70;;;21.70;55.70;;;;;;5053102;28;20702;-70
2024/02/24 06:55:27;;;;;;;3.60;2.07;;;21.80;55.70;;;;;;5054608;28;20179;-69
2024/02/24 06:57:53;;;;;;;3.00;1.90;;;21.80;55.70;;;;;;5054233;28;20694;-70
2024/02/24 07:00:19;;;;;;;1.57;1.40;;;21.80;55.70;;;;;;5054515;28;20665;-71
2024/02/24 07:02:46;;;;;;;2.40;1.43;;;21.80;55.70;;;;;;5053890;28;20234;-70
2024/02/24 07:05:11;;;;;;;2.07;1.63;;;21.80;55.70;;;;;;5053956;28;20171;-70
2024/02/24 07:07:37;;;;;;;2.20;1.90;;;21.80;55.70;;;;;;5054319;28;20421;-69
2024/02/24 07:10:06;;;;;;;2.00;1.67;;;21.80;55.70;;;;;;5053827;28;20214;-69
2024/02/24 07:12:31;;;;;;;2.97;1.70;;;21.80;55.70;;;;;;5053719;28;20262;-70
2024/02/24 07:14:58;;;;;;;4.20;1.97;;;21.80;55.70;;;;;;5054179;28;20833;-70
2024/02/24 07:17:23;;;;;;;2.20;1.93;;;21.80;55.60;;;;;;5054032;28;20175;-70
2024/02/24 07:19:49;;;;;;;2.33;1.80;;;21.80;55.60;;;;;;5053778;28;20954;-70
2024/02/24 07:22:15;;;;;;;2.90;1.40;;;21.80;55.60;;;;;;5053376;28;20195;-70
2024/02/24 07:24:41;;;;;;;3.57;1.90;;;21.80;55.60;;;;;;5053860;28;20551;-70
2024/02/24 07:27:07;;;;;;;2.97;2.10;;;21.80;55.60;;;;;;5054156;28;20437;-69
2024/02/24 07:29:33;;;;;;;2.20;1.50;;;21.80;55.60;;;;;;5053412;28;21225;-69
2024/02/24 07:31:58;;;;;;;2.10;1.53;;;21.80;55.50;;;;;;5053602;28;20175;-72
2024/02/24 07:34:24;;;;;;;2.70;1.80;;;21.80;55.60;;;;;;5050296;28;20211;-69
2024/02/24 07:36:49;;;;;;;2.00;1.80;;;21.80;55.60;;;;;;5053833;28;20170;-69
2024/02/24 07:39:15;;;;;;;2.00;1.53;;;21.80;55.60;;;;;;5053275;28;20641;-71
2024/02/24 07:41:41;;;;;;;2.20;1.33;;;21.80;55.60;;;;;;5053160;28;20179;-71
2024/02/24 07:44:07;;;;;;;2.37;2.17;;;21.80;55.60;;;;;;5053032;28;20650;-71
2024/02/24 07:46:33;;;;;;;1.80;1.23;;;21.80;55.60;;;;;;5053818;28;20889;-71
2024/02/24 07:49:00;;;;;;;2.63;1.87;;;21.80;55.60;;;;;;5053095;28;20492;-70
2024/02/24 07:51:27;;;;;;;4.80;2.27;;;21.80;55.70;;;;;;5053399;28;20163;-71
2024/02/24 07:53:53;;;;;;;2.00;1.70;;;21.90;55.70;;;;;;5053142;28;20453;-70
2024/02/24 07:56:20;;;;;;;2.33;1.70;;;21.80;55.70;;;;;;5052775;28;20451;-71
2024/02/24 07:58:46;;;;;;;1.43;1.27;;;21.90;55.70;;;;;;5053215;28;20414;-71
2024/02/24 08:01:11;;;;;;;4.50;1.50;;;21.90;55.70;;;;;;5053064;28;20410;-70
2024/02/24 08:03:37;;;;;;;2.70;1.70;;;21.90;55.70;;;;;;5053196;28;20191;-71
2024/02/24 08:06:03;;;;;;;1.90;1.60;;;21.90;55.80;;;;;;5053160;28;20171;-71
2024/02/24 08:08:29;;;;;;;3.13;2.23;;;21.90;55.70;;;;;;5053015;28;20170;-71
2024/02/24 08:10:54;;;;;;;3.47;1.70;;;21.90;55.80;;;;;;5049768;28;20207;-72
2024/02/24 08:13:20;;;;;;;1.63;1.23;;;21.90;55.80;;;;;;5043072;28;20578;-71
2024/02/24 08:15:45;;;;;;;2.07;1.80;;;21.90;55.70;;;;;;5042702;28;20175;-71
2024/02/24 08:18:11;;;;;;;2.00;1.40;;;21.90;55.70;;;;;;5041328;28;20186;-71
2024/02/24 08:20:36;;;;;;;1.93;1.50;;;21.90;55.70;;;;;;5043211;28;20163;-71
2024/02/24 08:23:03;;;;;;;2.33;1.60;;;21.90;55.70;;;;;;5041483;28;20191;-71
2024/02/24 08:25:29;;;;;;;2.17;1.67;;;21.90;55.70;;;;;;5041563;28;20174;-71
2024/02/24 08:27:54;;;;;;;2.63;2.40;;;21.90;55.70;;;;;;5042907;28;20414;-71
2024/02/24 08:30:20;;;;;;;2.67;1.60;;;21.90;55.70;;;;;;5046659;28;20179;-71
2024/02/24 08:32:45;;;;;;;1.70;1.60;;;21.90;55.70;;;;;;5051675;28;20341;-71
2024/02/24 08:35:11;;;;;;;1.90;1.30;;;21.90;55.70;;;;;;5052090;28;20254;-71
2024/02/24 08:37:37;;;;;;;2.40;1.37;;;21.90;55.70;;;;;;5052147;28;20167;-70
2024/02/24 08:40:03;;;;;;;2.70;1.43;;;21.90;55.80;;;;;;5052223;28;20630;-71
2024/02/24 08:42:28;;;;;;;2.23;1.70;;;21.90;55.80;;;;;;5052215;28;20195;-71
2024/02/24 08:44:54;;;;;;;2.27;1.40;;;21.90;55.80;;;;;;5050941;28;20888;-70
2024/02/24 08:47:19;;;;;;;2.33;1.40;;;21.90;55.80;;;;;;5052399;28;20175;-71
2024/02/24 08:49:45;;;;;;;2.37;1.50;;;21.90;55.80;;;;;;5052080;28;20178;-71
2024/02/24 08:52:10;;;;;;;2.33;1.90;;;21.90;55.90;;;;;;5052275;28;20190;-71
2024/02/24 08:54:36;;;;;;;2.47;1.83;;;21.90;55.80;;;;;;5053224;28;20186;-71
2024/02/24 08:57:02;;;;;;;2.40;1.57;;;21.90;55.90;;;;;;5052867;28;20257;-71
2024/02/24 08:59:27;;;;;;;3.10;1.70;;;21.90;55.80;;;;;;5051873;28;20203;-71
2024/02/24 09:01:54;;;;;;;2.73;1.40;;;21.90;55.80;;;;;;5053072;28;20175;-70
2024/02/24 09:04:20;;;;;;;2.83;1.43;;;21.90;55.80;;;;;;5053455;28;20524;-71
2024/02/24 09:06:45;;;;;;;2.23;1.37;;;21.90;55.90;;;;;;5053295;28;20409;-71
2024/02/24 09:09:15;;;;;;;2.30;1.20;;;21.90;55.80;;;;;;5052873;28;20973;-71
2024/02/24 09:11:42;;;;;;;3.20;1.50;;;21.90;55.80;;;;;;5052975;28;20247;-71
2024/02/24 09:14:07;;;;;;;2.03;1.83;;;21.90;55.90;;;;;;5052933;28;20453;-70
2024/02/24 09:16:33;;;;;;;3.37;1.77;;;21.90;55.80;;;;;;5052630;28;20413;-70
2024/02/24 09:18:59;;;;;;;4.40;1.43;;;21.90;55.90;;;;;;5052768;28;20693;-71
2024/02/24 09:21:24;;;;;;;3.20;1.50;;;21.90;55.80;;;;;;5053162;28;20182;-72
2024/02/24 09:23:50;;;;;;;2.40;1.50;;;21.90;55.80;;;;;;5053197;28;20218;-69
2024/02/24 09:26:16;;;;;;;2.00;1.50;;;21.90;55.80;;;;;;5052978;28;20179;-71
2024/02/24 09:28:42;;;;;;;2.73;1.43;;;21.90;55.80;;;;;;5051316;28;20206;-71
2024/02/24 09:31:09;;;;;;;3.30;1.80;;;21.90;55.80;;;;;;5052948;28;20189;-70
2024/02/24 09:33:35;;;;;;;2.50;1.63;;;21.90;55.80;;;;;;5052323;28;20511;-71
2024/02/24 09:36:00;;;;;;;2.10;1.27;;;21.90;55.80;;;;;;5052630;28;20896;-70
2024/02/24 09:38:26;;;;;;;2.40;1.60;;;21.90;55.80;;;;;;5053108;28;20186;-69
2024/02/24 09:40:52;;;;;;;3.40;1.50;;;21.90;55.80;;;;;;5052950;28;20194;-71
2024/02/24 09:43:18;;;;;;;2.07;1.27;;;21.90;55.80;;;;;;5053551;28;20282;-71
2024/02/24 09:45:47;;;;;;;3.70;2.30;;;21.90;55.80;;;;;;5053076;28;20238;-70
2024/02/24 09:48:14;;;;;;;2.17;1.50;;;22.00;55.90;;;;;;5052891;28;20853;-71
2024/02/24 09:50:40;;;;;;;2.93;1.70;;;22.00;55.90;;;;;;5052844;28;20437;-71
2024/02/24 09:53:06;;;;;;;2.03;1.33;;;22.00;55.90;;;;;;5053088;28;20465;-70
2024/02/24 09:55:32;;;;;;;3.07;1.60;;;22.00;55.90;;;;;;5052740;28;20428;-71
2024/02/24 09:57:59;;;;;;;3.23;1.33;;;22.00;55.90;;;;;;5052719;28;20178;-71
2024/02/24 10:00:25;;;;;;;2.00;1.40;;;21.90;55.80;;;;;;5052478;28;20773;-71
2024/02/24 10:02:50;;;;;;;1.63;1.40;;;22.00;55.90;;;;;;5052289;28;20480;-69
2024/02/24 10:05:16;;;;;;;1.90;1.60;;;21.90;55.90;;;;;;5052647;28;20187;-68
2024/02/24 10:07:43;;;;;;;2.33;1.77;;;22.00;55.90;;;;;;5052455;28;20183;-70
2024/02/24 10:10:11;;;;;;;3.03;1.37;;;22.00;55.90;;;;;;5057368;28;20254;-70
2024/02/24 10:12:36;;;;;;;2.40;1.53;;;22.00;55.90;;;;;;5057906;28;20464;-70
2024/02/24 10:15:02;;;;;;;2.40;1.60;;;22.00;55.90;;;;;;5055177;28;20417;-69
2024/02/24 10:17:29;;;;;;;2.10;1.40;;;22.00;55.90;;;;;;5056200;28;20175;-69
2024/02/24 10:19:56;;;;;;;2.80;1.40;;;21.90;55.90;;;;;;5056972;28;20437;-70
2024/02/24 10:22:22;;;;;;;6.87;1.97;;;22.00;56.00;;;;;;5054740;28;20980;-70
2024/02/24 10:24:48;;;;;;;4.40;2.03;;;22.00;55.90;;;;;;5054780;28;20487;-67
2024/02/24 10:27:17;;;;;;;2.10;1.40;;;22.00;56.00;;;;;;5055229;28;20880;-67
2024/02/24 10:29:48;;;;;;;2.73;1.40;;;22.00;55.90;;;;;;5054254;28;20254;-68
2024/02/24 10:32:14;;;;;;;2.67;1.43;;;22.00;56.00;;;;;;5054145;28;20840;-68
2024/02/24 10:34:40;;;;;;;2.30;1.53;;;22.00;55.90;;;;;;5054278;28;20425;-69
2024/02/24 10:37:07;;;;;;;3.77;1.60;;;22.00;56.00;;;;;;5054856;28;20418;-70
2024/02/24 10:39:35;;;;;;;5.43;2.30;;;22.00;56.00;;;;;;5054113;28;20958;-71
2024/02/24 10:42:04;;;;;;;4.83;2.63;;;22.00;55.90;;;;;;5054797;28;20410;-69
2024/02/24 10:44:33;;;;;;;9.93;4.73;;;22.00;56.00;;;;;;5056348;28;20417;-70
2024/02/24 10:46:59;;;;;;;9.80;5.83;;;22.00;55.90;;;;;;5055850;28;20786;-71
2024/02/24 10:49:25;;;;;;;10.23;6.73;;;22.00;55.90;;;;;;5056020;28;20429;-72
2024/02/24 10:51:50;;;;;;;5.53;3.37;;;22.00;55.90;;;;;;5055526;28;20409;-71
2024/02/24 10:54:22;;;;;;;6.43;4.17;;;22.00;55.90;;;;;;5056023;28;20597;-72
2024/02/24 10:56:59;;;;;;;7.53;4.80;;;22.00;55.90;;;;;;5055954;28;20170;-72
2024/02/24 10:59:29;;;;;;;9.57;5.70;;;22.00;55.90;;;;;;5055428;28;20504;-69
2024/02/24 11:02:10;;;;;;;15.33;7.03;;;22.00;55.90;;;;;;5055676;28;20409;-73
2024/02/24 11:04:37;;;;;;;11.53;7.63;;;22.00;55.90;;;;;;5055020;28;20394;-70
2024/02/24 11:07:05;;;;;;;15.50;7.83;;;22.00;55.90;;;;;;5055381;28;20517;-71
2024/02/24 11:09:35;;;;;;;13.00;8.33;;;22.00;55.90;;;;;;5055417;28;20939;-71
2024/02/24 11:12:13;;;;;;;14.33;8.60;;;22.00;55.90;;;;;;5055292;28;20421;-72
2024/02/24 11:14:46;;;;;;;14.33;9.10;;;22.00;55.90;;;;;;5055697;28;20413;-70
2024/02/24 11:17:12;;;;;;;14.10;9.03;;;22.00;55.90;;;;;;5055149;28;21004;-72
2024/02/24 11:19:44;;;;;;;14.23;9.87;;;22.00;55.90;;;;;;5053974;28;21007;-72
2024/02/24 11:22:24;;;;;;;16.80;9.90;;;22.00;55.90;;;;;;5054923;28;20429;-71
2024/02/24 11:25:01;;;;;;;19.40;10.27;;;22.00;55.90;;;;;;5054674;28;20447;-71
2024/02/24 11:27:31;;;;;;;17.20;11.40;;;22.00;55.90;;;;;;5054710;28;20466;-71
2024/02/24 11:29:57;;;;;;;22.40;11.43;;;22.00;55.90;;;;;;5054671;28;20418;-70
2024/02/24 11:32:23;;;;;;;14.77;10.67;;;22.00;55.90;;;;;;5054896;28;20784;-71
2024/02/24 11:34:50;;;;;;;19.03;10.13;;;22.00;56.00;;;;;;5053325;28;20482;-71
2024/02/24 11:37:17;;;;;;;23.03;12.10;;;22.00;56.00;;;;;;5054939;28;20613;-71
2024/02/24 11:39:44;;;;;;;19.93;11.27;;;22.00;55.90;;;;;;5054480;28;20410;-72
2024/02/24 11:42:13;;;;;;;16.13;10.97;;;22.00;55.90;;;;;;5053116;28;20443;-71
2024/02/24 11:44:45;;;;;;;18.37;12.13;;;22.00;55.90;;;;;;5054053;28;20990;-71
2024/02/24 11:47:15;;;;;;;19.30;11.07;;;22.00;55.90;;;;;;5053581;28;20421;-71
2024/02/24 11:49:47;;;;;;;15.77;10.83;;;22.00;55.90;;;;;;5054010;28;20426;-71
2024/02/24 11:52:15;;;;;;;21.30;11.00;;;22.00;55.90;;;;;;5054297;28;20437;-72
2024/02/24 11:54:43;;;;;;;19.73;11.00;;;22.00;55.90;;;;;;5052718;28;20800;-71
2024/02/24 11:57:11;;;;;;;21.90;12.27;;;22.00;55.90;;;;;;5054837;28;20417;-69
2024/02/24 11:59:38;;;;;;;17.77;11.30;;;22.00;55.90;;;;;;5054939;28;20428;-71
2024/02/24 12:02:04;;;;;;;18.23;11.27;;;22.00;55.90;;;;;;5054889;28;20433;-72
2024/02/24 12:04:30;;;;;;;19.30;11.73;;;22.00;55.90;;;;;;5054525;28;20483;-71
2024/02/24 12:06:57;;;;;;;16.33;11.03;;;22.00;55.90;;;;;;5055187;28;20921;-72
2024/02/24 12:09:23;;;;;;;20.00;12.93;;;22.00;55.90;;;;;;5054774;28;20171;-71
2024/02/24 12:11:48;;;;;;;19.33;11.10;;;22.00;55.90;;;;;;5054853;28;20416;-71
2024/02/24 12:14:14;;;;;;;19.47;11.07;;;22.10;56.00;;;;;;5053102;28;20202;-71
2024/02/24 12:16:41;;;;;;;18.80;11.60;;;22.10;55.90;;;;;;5054416;28;20182;-71
2024/02/24 12:19:06;;;;;;;18.23;11.87;;;22.00;55.90;;;;;;5054701;28;20194;-70
2024/02/24 12:21:32;;;;;;;19.60;12.50;;;22.10;56.00;;;;;;5054387;28;20835;-72
2024/02/24 12:23:57;;;;;;;16.17;11.03;;;22.10;55.90;;;;;;5054247;28;20222;-71
2024/02/24 12:26:26;;;;;;;20.27;11.47;;;22.10;55.90;;;;;;5054742;28;20179;-71
2024/02/24 12:28:52;;;;;;;18.80;11.60;;;22.10;55.90;;;;;;5052920;28;20190;-71
2024/02/24 12:31:18;;;;;;;19.27;11.93;;;22.10;55.90;;;;;;5054160;28;20426;-71
2024/02/24 12:33:45;;;;;;;19.97;10.80;;;22.10;55.90;;;;;;5054370;28;20557;-71
2024/02/24 12:36:13;;;;;;;21.50;11.30;;;22.10;55.90;;;;;;5054311;28;20246;-69
2024/02/24 12:38:40;;;;;;;16.40;11.20;;;22.10;55.90;;;;;;5054221;28;20406;-71
2024/02/24 12:41:07;;;;;;;20.43;11.73;;;22.10;55.90;;;;;;5054428;28;20783;-71